sensor_id;sensor_type;location;lat;lon;timestamp;temperature;humidity
28767;DHT22;15921;52.034;20.650;2022-11-11T00:00:11;7.40;99.90
28767;DHT22;15921;52.034;20.650;2022-11-11T00:02:37;7.40;99.90
28767;DHT22;15921;52.034;20.650;2022-11-11T00:05:03;7.50;99.90
28767;DHT22;15921;52.034;20.650;2022-11-11T00:07:29;7.50;99.90
28767;DHT22;15921;52.034;20.650;2022-11-11T00:09:55;7.60;99.90
28767;DHT22;15921;52.034;20.650;2022-11-11T00:12:20;7.70;99.90
28767;DHT22;15921;52.034;20.650;2022-11-11T00:14:46;7.70;99.90
28767;DHT22;15921;52.034;20.650;2022-11-11T00:17:12;7.70;99.90
28767;DHT22;15921;52.034;20.650;2022-11-11T00:19:57;7.70;99.90
28767;DHT22;15921;52.034;20.650;2022-11-11T00:22:41;7.70;99.90
28767;DHT22;15921;52.034;20.650;2022-11-11T00:25:25;7.70;99.90
28767;DHT22;15921;52.034;20.650;2022-11-11T00:27:51;7.70;99.90
28767;DHT22;15921;52.034;20.650;2022-11-11T00:30:17;7.70;99.90
28767;DHT22;15921;52.034;20.650;2022-11-11T00:32:43;7.60;99.90
28767;DHT22;15921;52.034;20.650;2022-11-11T00:35:09;7.60;99.90
28767;DHT22;15921;52.034;20.650;2022-11-11T00:37:53;7.60;99.90
28767;DHT22;15921;52.034;20.650;2022-11-11T00:40:19;7.60;99.90
28767;DHT22;15921;52.034;20.650;2022-11-11T00:42:45;7.60;99.90
28767;DHT22;15921;52.034;20.650;2022-11-11T00:45:11;7.60;99.90
28767;DHT22;15921;52.034;20.650;2022-11-11T00:47:36;7.60;99.90
28767;DHT22;15921;52.034;20.650;2022-11-11T00:50:26;7.60;99.90
28767;DHT22;15921;52.034;20.650;2022-11-11T00:53:13;7.70;99.90
28767;DHT22;15921;52.034;20.650;2022-11-11T00:55:40;7.70;99.90
28767;DHT22;15921;52.034;20.650;2022-11-11T00:58:05;7.80;99.90
28767;DHT22;15921;52.034;20.650;2022-11-11T01:00:31;7.90;99.90
28767;DHT22;15921;52.034;20.650;2022-11-11T01:02:57;8.00;99.90
28767;DHT22;15921;52.034;20.650;2022-11-11T01:05:24;8.10;99.90
28767;DHT22;15921;52.034;20.650;2022-11-11T01:07:50;8.10;99.90
28767;DHT22;15921;52.034;20.650;2022-11-11T01:10:17;8.20;99.90
28767;DHT22;15921;52.034;20.650;2022-11-11T01:13:03;8.20;99.90
28767;DHT22;15921;52.034;20.650;2022-11-11T01:15:47;8.30;99.90
28767;DHT22;15921;52.034;20.650;2022-11-11T01:18:15;8.40;99.90
28767;DHT22;15921;52.034;20.650;2022-11-11T01:20:41;8.40;99.90
28767;DHT22;15921;52.034;20.650;2022-11-11T01:23:09;8.40;99.90
28767;DHT22;15921;52.034;20.650;2022-11-11T01:25:36;8.50;99.90
28767;DHT22;15921;52.034;20.650;2022-11-11T01:28:03;8.50;99.90
28767;DHT22;15921;52.034;20.650;2022-11-11T01:30:33;8.50;99.90
28767;DHT22;15921;52.034;20.650;2022-11-11T01:33:00;8.50;99.90
28767;DHT22;15921;52.034;20.650;2022-11-11T01:35:26;8.50;99.90
28767;DHT22;15921;52.034;20.650;2022-11-11T01:37:52;8.50;99.90
28767;DHT22;15921;52.034;20.650;2022-11-11T01:40:17;8.50;99.90
28767;DHT22;15921;52.034;20.650;2022-11-11T01:42:50;8.50;99.90
28767;DHT22;15921;52.034;20.650;2022-11-11T01:46:08;8.60;99.90
28767;DHT22;15921;52.034;20.650;2022-11-11T01:48:34;8.60;99.90
28767;DHT22;15921;52.034;20.650;2022-11-11T01:53:55;8.60;99.90
28767;DHT22;15921;52.034;20.650;2022-11-11T01:56:22;8.60;99.90
28767;DHT22;15921;52.034;20.650;2022-11-11T01:58:49;8.60;99.90
28767;DHT22;15921;52.034;20.650;2022-11-11T02:01:17;8.60;99.90
28767;DHT22;15921;52.034;20.650;2022-11-11T02:03:43;8.60;99.90
28767;DHT22;15921;52.034;20.650;2022-11-11T02:06:30;8.60;99.90
28767;DHT22;15921;52.034;20.650;2022-11-11T02:08:57;8.60;99.90
28767;DHT22;15921;52.034;20.650;2022-11-11T02:11:25;8.50;99.90
28767;DHT22;15921;52.034;20.650;2022-11-11T02:14:11;8.50;99.90
28767;DHT22;15921;52.034;20.650;2022-11-11T02:16:55;8.40;99.90
28767;DHT22;15921;52.034;20.650;2022-11-11T02:20:01;8.30;99.90
28767;DHT22;15921;52.034;20.650;2022-11-11T02:24:53;8.10;99.90
28767;DHT22;15921;52.034;20.650;2022-11-11T02:27:20;8.10;99.90
28767;DHT22;15921;52.034;20.650;2022-11-11T02:29:49;8.00;99.90
28767;DHT22;15921;52.034;20.650;2022-11-11T02:32:15;7.90;99.90
28767;DHT22;15921;52.034;20.650;2022-11-11T02:34:41;7.90;99.90
28767;DHT22;15921;52.034;20.650;2022-11-11T02:37:07;7.80;99.90
28767;DHT22;15921;52.034;20.650;2022-11-11T02:39:36;7.80;99.90
28767;DHT22;15921;52.034;20.650;2022-11-11T02:42:04;7.70;99.90
28767;DHT22;15921;52.034;20.650;2022-11-11T02:44:35;7.70;99.90
28767;DHT22;15921;52.034;20.650;2022-11-11T02:47:01;7.60;99.90
28767;DHT22;15921;52.034;20.650;2022-11-11T02:49:26;7.60;99.90
28767;DHT22;15921;52.034;20.650;2022-11-11T02:51:52;7.60;99.90
28767;DHT22;15921;52.034;20.650;2022-11-11T02:54:18;7.50;99.90
28767;DHT22;15921;52.034;20.650;2022-11-11T02:56:43;7.50;99.90
28767;DHT22;15921;52.034;20.650;2022-11-11T02:59:27;7.60;99.90
28767;DHT22;15921;52.034;20.650;2022-11-11T03:01:53;7.50;99.90
28767;DHT22;15921;52.034;20.650;2022-11-11T03:04:19;7.50;99.90
28767;DHT22;15921;52.034;20.650;2022-11-11T03:06:44;7.50;99.90
28767;DHT22;15921;52.034;20.650;2022-11-11T03:09:10;7.50;99.90
28767;DHT22;15921;52.034;20.650;2022-11-11T03:11:36;7.50;99.90
28767;DHT22;15921;52.034;20.650;2022-11-11T03:14:03;7.50;99.90
28767;DHT22;15921;52.034;20.650;2022-11-11T03:16:29;7.40;99.90
28767;DHT22;15921;52.034;20.650;2022-11-11T03:19:13;7.40;99.90
28767;DHT22;15921;52.034;20.650;2022-11-11T03:21:39;7.40;99.90
28767;DHT22;15921;52.034;20.650;2022-11-11T03:24:05;7.40;99.90
28767;DHT22;15921;52.034;20.650;2022-11-11T03:26:31;7.40;99.90
28767;DHT22;15921;52.034;20.650;2022-11-11T03:28:56;7.40;99.90
28767;DHT22;15921;52.034;20.650;2022-11-11T03:31:22;7.50;99.90
28767;DHT22;15921;52.034;20.650;2022-11-11T03:33:48;7.50;99.90
28767;DHT22;15921;52.034;20.650;2022-11-11T03:36:13;7.50;99.90
28767;DHT22;15921;52.034;20.650;2022-11-11T03:38:39;7.50;99.90
28767;DHT22;15921;52.034;20.650;2022-11-11T03:41:05;7.50;99.90
28767;DHT22;15921;52.034;20.650;2022-11-11T03:43:33;7.50;99.90
28767;DHT22;15921;52.034;20.650;2022-11-11T03:46:00;7.50;99.90
28767;DHT22;15921;52.034;20.650;2022-11-11T03:48:29;7.50;99.90
28767;DHT22;15921;52.034;20.650;2022-11-11T03:50:55;7.50;99.90
28767;DHT22;15921;52.034;20.650;2022-11-11T03:53:21;7.50;99.90
28767;DHT22;15921;52.034;20.650;2022-11-11T03:55:50;7.50;99.90
28767;DHT22;15921;52.034;20.650;2022-11-11T03:58:16;7.50;99.90
28767;DHT22;15921;52.034;20.650;2022-11-11T04:00:43;7.50;99.90
28767;DHT22;15921;52.034;20.650;2022-11-11T04:03:14;7.50;99.90
28767;DHT22;15921;52.034;20.650;2022-11-11T04:05:59;7.50;99.90
28767;DHT22;15921;52.034;20.650;2022-11-11T04:08:48;7.50;99.90
28767;DHT22;15921;52.034;20.650;2022-11-11T04:11:32;7.60;99.90
28767;DHT22;15921;52.034;20.650;2022-11-11T04:14:02;7.60;99.90
28767;DHT22;15921;52.034;20.650;2022-11-11T04:16:46;7.60;99.90
28767;DHT22;15921;52.034;20.650;2022-11-11T04:19:12;7.60;99.90
28767;DHT22;15921;52.034;20.650;2022-11-11T04:21:56;7.70;99.90
28767;DHT22;15921;52.034;20.650;2022-11-11T04:24:22;7.70;99.90
28767;DHT22;15921;52.034;20.650;2022-11-11T04:27:09;7.80;99.90
28767;DHT22;15921;52.034;20.650;2022-11-11T04:29:35;7.80;99.90
28767;DHT22;15921;52.034;20.650;2022-11-11T04:34:52;7.80;99.90
28767;DHT22;15921;52.034;20.650;2022-11-11T04:37:19;7.80;99.90
28767;DHT22;15921;52.034;20.650;2022-11-11T04:39:45;7.90;99.90
28767;DHT22;15921;52.034;20.650;2022-11-11T04:42:30;7.90;99.90
28767;DHT22;15921;52.034;20.650;2022-11-11T04:44:57;7.90;99.90
28767;DHT22;15921;52.034;20.650;2022-11-11T04:48:09;8.00;99.90
28767;DHT22;15921;52.034;20.650;2022-11-11T04:50:37;8.00;99.90
28767;DHT22;15921;52.034;20.650;2022-11-11T04:53:05;8.00;99.90
28767;DHT22;15921;52.034;20.650;2022-11-11T04:55:31;8.10;99.90
28767;DHT22;15921;52.034;20.650;2022-11-11T04:58:21;8.10;99.90
28767;DHT22;15921;52.034;20.650;2022-11-11T05:00:47;8.20;99.90
28767;DHT22;15921;52.034;20.650;2022-11-11T05:03:13;8.20;99.90
28767;DHT22;15921;52.034;20.650;2022-11-11T05:05:49;8.20;99.90
28767;DHT22;15921;52.034;20.650;2022-11-11T05:08:36;8.20;99.90
28767;DHT22;15921;52.034;20.650;2022-11-11T05:11:34;8.30;99.90
28767;DHT22;15921;52.034;20.650;2022-11-11T05:14:05;8.20;99.90
28767;DHT22;15921;52.034;20.650;2022-11-11T05:16:54;8.20;99.90
28767;DHT22;15921;52.034;20.650;2022-11-11T05:19:39;8.30;99.90
28767;DHT22;15921;52.034;20.650;2022-11-11T05:22:26;8.30;99.90
28767;DHT22;15921;52.034;20.650;2022-11-11T05:24:52;8.30;99.90
28767;DHT22;15921;52.034;20.650;2022-11-11T05:27:37;8.30;99.90
28767;DHT22;15921;52.034;20.650;2022-11-11T05:30:04;8.40;99.90
28767;DHT22;15921;52.034;20.650;2022-11-11T05:32:32;8.40;99.90
28767;DHT22;15921;52.034;20.650;2022-11-11T05:34:57;8.40;99.90
28767;DHT22;15921;52.034;20.650;2022-11-11T05:37:23;8.40;99.90
28767;DHT22;15921;52.034;20.650;2022-11-11T05:39:49;8.40;99.90
28767;DHT22;15921;52.034;20.650;2022-11-11T05:42:15;8.50;99.90
28767;DHT22;15921;52.034;20.650;2022-11-11T05:44:41;8.50;99.90
28767;DHT22;15921;52.034;20.650;2022-11-11T05:47:06;8.50;99.90
28767;DHT22;15921;52.034;20.650;2022-11-11T05:49:32;8.50;99.90
28767;DHT22;15921;52.034;20.650;2022-11-11T05:51:58;8.50;99.90
28767;DHT22;15921;52.034;20.650;2022-11-11T05:54:24;8.50;99.90
28767;DHT22;15921;52.034;20.650;2022-11-11T05:56:50;8.50;99.90
28767;DHT22;15921;52.034;20.650;2022-11-11T05:59:16;8.50;99.90
28767;DHT22;15921;52.034;20.650;2022-11-11T06:01:41;8.50;99.90
28767;DHT22;15921;52.034;20.650;2022-11-11T06:04:07;8.60;99.90
28767;DHT22;15921;52.034;20.650;2022-11-11T06:06:34;8.60;99.90
28767;DHT22;15921;52.034;20.650;2022-11-11T06:09:00;8.60;99.90
28767;DHT22;15921;52.034;20.650;2022-11-11T06:11:26;8.60;99.90
28767;DHT22;15921;52.034;20.650;2022-11-11T06:13:52;8.60;99.90
28767;DHT22;15921;52.034;20.650;2022-11-11T06:16:19;8.70;99.90
28767;DHT22;15921;52.034;20.650;2022-11-11T06:18:45;8.70;99.90
28767;DHT22;15921;52.034;20.650;2022-11-11T06:21:11;8.70;99.90
28767;DHT22;15921;52.034;20.650;2022-11-11T06:23:37;8.70;99.90
28767;DHT22;15921;52.034;20.650;2022-11-11T06:26:03;8.80;99.90
28767;DHT22;15921;52.034;20.650;2022-11-11T06:28:42;8.80;99.90
28767;DHT22;15921;52.034;20.650;2022-11-11T06:31:09;8.80;99.90
28767;DHT22;15921;52.034;20.650;2022-11-11T06:33:37;8.90;99.90
28767;DHT22;15921;52.034;20.650;2022-11-11T06:36:04;9.00;99.90
28767;DHT22;15921;52.034;20.650;2022-11-11T06:38:30;9.00;99.90
28767;DHT22;15921;52.034;20.650;2022-11-11T06:40:56;9.00;99.90
28767;DHT22;15921;52.034;20.650;2022-11-11T06:43:22;9.10;99.90
28767;DHT22;15921;52.034;20.650;2022-11-11T06:45:52;9.10;99.90
28767;DHT22;15921;52.034;20.650;2022-11-11T06:48:19;9.20;99.90
28767;DHT22;15921;52.034;20.650;2022-11-11T06:50:45;9.20;99.90
28767;DHT22;15921;52.034;20.650;2022-11-11T06:53:13;9.20;99.90
28767;DHT22;15921;52.034;20.650;2022-11-11T06:55:40;9.30;99.90
28767;DHT22;15921;52.034;20.650;2022-11-11T06:58:06;9.30;99.90
28767;DHT22;15921;52.034;20.650;2022-11-11T07:00:33;9.30;99.90
28767;DHT22;15921;52.034;20.650;2022-11-11T07:02:59;9.30;99.90
28767;DHT22;15921;52.034;20.650;2022-11-11T07:05:24;9.30;99.90
28767;DHT22;15921;52.034;20.650;2022-11-11T07:07:50;9.30;99.90
28767;DHT22;15921;52.034;20.650;2022-11-11T07:10:16;9.30;99.90
28767;DHT22;15921;52.034;20.650;2022-11-11T07:12:42;9.40;99.90
28767;DHT22;15921;52.034;20.650;2022-11-11T07:15:09;9.40;99.90
28767;DHT22;15921;52.034;20.650;2022-11-11T07:17:35;9.50;99.90
28767;DHT22;15921;52.034;20.650;2022-11-11T07:20:00;9.50;99.90
28767;DHT22;15921;52.034;20.650;2022-11-11T07:22:26;9.50;99.90
28767;DHT22;15921;52.034;20.650;2022-11-11T07:24:52;9.50;99.90
28767;DHT22;15921;52.034;20.650;2022-11-11T07:27:17;9.60;99.90
28767;DHT22;15921;52.034;20.650;2022-11-11T07:29:44;9.60;99.90
28767;DHT22;15921;52.034;20.650;2022-11-11T07:32:10;9.70;99.90
28767;DHT22;15921;52.034;20.650;2022-11-11T07:34:35;9.70;99.90
28767;DHT22;15921;52.034;20.650;2022-11-11T07:37:01;9.80;99.90
28767;DHT22;15921;52.034;20.650;2022-11-11T07:39:27;9.80;99.90
28767;DHT22;15921;52.034;20.650;2022-11-11T07:41:52;9.90;99.90
28767;DHT22;15921;52.034;20.650;2022-11-11T07:44:18;10.10;99.90
28767;DHT22;15921;52.034;20.650;2022-11-11T07:46:44;10.20;99.90
28767;DHT22;15921;52.034;20.650;2022-11-11T07:49:09;10.30;99.90
28767;DHT22;15921;52.034;20.650;2022-11-11T07:51:35;10.50;99.90
28767;DHT22;15921;52.034;20.650;2022-11-11T07:54:00;10.60;99.90
28767;DHT22;15921;52.034;20.650;2022-11-11T07:56:26;10.60;99.90
28767;DHT22;15921;52.034;20.650;2022-11-11T07:58:52;10.70;99.90
28767;DHT22;15921;52.034;20.650;2022-11-11T08:01:18;10.70;99.90
28767;DHT22;15921;52.034;20.650;2022-11-11T08:03:43;10.70;99.90
28767;DHT22;15921;52.034;20.650;2022-11-11T08:06:19;10.70;99.90
28767;DHT22;15921;52.034;20.650;2022-11-11T08:08:45;10.70;99.90
28767;DHT22;15921;52.034;20.650;2022-11-11T08:11:12;10.70;99.90
28767;DHT22;15921;52.034;20.650;2022-11-11T08:13:37;10.70;99.90
28767;DHT22;15921;52.034;20.650;2022-11-11T08:16:11;10.70;99.90
28767;DHT22;15921;52.034;20.650;2022-11-11T08:18:37;10.70;99.90
28767;DHT22;15921;52.034;20.650;2022-11-11T08:21:04;10.70;99.90
28767;DHT22;15921;52.034;20.650;2022-11-11T08:23:30;10.80;99.90
28767;DHT22;15921;52.034;20.650;2022-11-11T08:26:04;10.80;99.90
28767;DHT22;15921;52.034;20.650;2022-11-11T08:28:31;10.80;99.90
28767;DHT22;15921;52.034;20.650;2022-11-11T08:30:58;10.90;99.90
28767;DHT22;15921;52.034;20.650;2022-11-11T08:33:26;11.10;99.90
28767;DHT22;15921;52.034;20.650;2022-11-11T08:35:52;11.10;99.90
28767;DHT22;15921;52.034;20.650;2022-11-11T08:38:21;11.10;99.90
28767;DHT22;15921;52.034;20.650;2022-11-11T08:40:48;11.10;99.90
28767;DHT22;15921;52.034;20.650;2022-11-11T08:43:14;11.20;99.90
28767;DHT22;15921;52.034;20.650;2022-11-11T08:45:40;11.30;99.90
28767;DHT22;15921;52.034;20.650;2022-11-11T08:48:06;11.40;99.90
28767;DHT22;15921;52.034;20.650;2022-11-11T08:50:36;11.50;99.90
28767;DHT22;15921;52.034;20.650;2022-11-11T08:53:02;11.70;99.90
28767;DHT22;15921;52.034;20.650;2022-11-11T08:55:28;11.80;99.90
28767;DHT22;15921;52.034;20.650;2022-11-11T08:58:02;11.80;99.90
28767;DHT22;15921;52.034;20.650;2022-11-11T09:00:28;11.90;99.90
28767;DHT22;15921;52.034;20.650;2022-11-11T09:02:59;11.90;99.90
28767;DHT22;15921;52.034;20.650;2022-11-11T09:05:24;11.90;99.90
28767;DHT22;15921;52.034;20.650;2022-11-11T09:07:50;12.00;99.90
28767;DHT22;15921;52.034;20.650;2022-11-11T09:10:16;12.10;99.90
28767;DHT22;15921;52.034;20.650;2022-11-11T09:12:42;12.30;99.90
28767;DHT22;15921;52.034;20.650;2022-11-11T09:15:07;12.30;99.90
28767;DHT22;15921;52.034;20.650;2022-11-11T09:17:36;12.30;99.90
28767;DHT22;15921;52.034;20.650;2022-11-11T09:20:02;12.30;99.90
28767;DHT22;15921;52.034;20.650;2022-11-11T09:22:28;12.40;99.90
28767;DHT22;15921;52.034;20.650;2022-11-11T09:24:53;12.40;99.90
28767;DHT22;15921;52.034;20.650;2022-11-11T09:27:20;12.40;99.90
28767;DHT22;15921;52.034;20.650;2022-11-11T09:29:46;12.40;99.90
28767;DHT22;15921;52.034;20.650;2022-11-11T09:32:12;12.40;99.90
28767;DHT22;15921;52.034;20.650;2022-11-11T09:34:37;12.40;99.90
28767;DHT22;15921;52.034;20.650;2022-11-11T09:37:03;12.40;99.90
28767;DHT22;15921;52.034;20.650;2022-11-11T09:39:29;12.40;99.90
28767;DHT22;15921;52.034;20.650;2022-11-11T09:49:49;12.40;99.90
28767;DHT22;15921;52.034;20.650;2022-11-11T09:54:58;12.40;99.90
28767;DHT22;15921;52.034;20.650;2022-11-11T09:57:37;12.40;99.90
28767;DHT22;15921;52.034;20.650;2022-11-11T10:00:16;12.30;99.90
28767;DHT22;15921;52.034;20.650;2022-11-11T10:05:13;12.30;99.90
28767;DHT22;15921;52.034;20.650;2022-11-11T10:10:22;12.30;99.90
28767;DHT22;15921;52.034;20.650;2022-11-11T10:12:55;12.30;99.90
28767;DHT22;15921;52.034;20.650;2022-11-11T10:15:21;12.40;99.90
28767;DHT22;15921;52.034;20.650;2022-11-11T10:18:25;12.30;99.90
28767;DHT22;15921;52.034;20.650;2022-11-11T10:20:55;12.40;99.90
28767;DHT22;15921;52.034;20.650;2022-11-11T10:23:42;12.30;99.90
28767;DHT22;15921;52.034;20.650;2022-11-11T10:26:18;12.30;99.90
28767;DHT22;15921;52.034;20.650;2022-11-11T10:28:44;12.10;99.90
28767;DHT22;15921;52.034;20.650;2022-11-11T10:31:16;12.10;99.90
28767;DHT22;15921;52.034;20.650;2022-11-11T10:36:20;12.10;99.90
28767;DHT22;15921;52.034;20.650;2022-11-11T10:39:03;12.10;99.90
28767;DHT22;15921;52.034;20.650;2022-11-11T10:44:25;12.00;99.90
28767;DHT22;15921;52.034;20.650;2022-11-11T10:49:51;12.10;99.90
28767;DHT22;15921;52.034;20.650;2022-11-11T10:52:23;12.10;99.90
28767;DHT22;15921;52.034;20.650;2022-11-11T10:57:36;12.10;99.90
28767;DHT22;15921;52.034;20.650;2022-11-11T11:00:10;12.20;99.90
28767;DHT22;15921;52.034;20.650;2022-11-11T11:08:28;12.40;99.90
28767;DHT22;15921;52.034;20.650;2022-11-11T11:10:57;12.50;99.90
28767;DHT22;15921;52.034;20.650;2022-11-11T11:16:16;12.60;99.90
28767;DHT22;15921;52.034;20.650;2022-11-11T11:18:42;12.60;99.90
28767;DHT22;15921;52.034;20.650;2022-11-11T11:21:09;12.60;99.90
28767;DHT22;15921;52.034;20.650;2022-11-11T11:23:42;12.70;99.90
28767;DHT22;15921;52.034;20.650;2022-11-11T11:26:10;12.60;99.90
28767;DHT22;15921;52.034;20.650;2022-11-11T11:28:57;12.60;99.90
28767;DHT22;15921;52.034;20.650;2022-11-11T11:31:35;12.70;99.90
28767;DHT22;15921;52.034;20.650;2022-11-11T11:34:02;12.60;99.90
28767;DHT22;15921;52.034;20.650;2022-11-11T11:36:27;12.60;99.90
28767;DHT22;15921;52.034;20.650;2022-11-11T11:38:53;12.60;99.90
28767;DHT22;15921;52.034;20.650;2022-11-11T11:41:39;12.60;99.90
28767;DHT22;15921;52.034;20.650;2022-11-11T11:46:57;12.70;99.90
28767;DHT22;15921;52.034;20.650;2022-11-11T11:49:59;12.80;99.90
28767;DHT22;15921;52.034;20.650;2022-11-11T11:57:55;12.60;99.90
28767;DHT22;15921;52.034;20.650;2022-11-11T12:00:30;12.60;99.90
28767;DHT22;15921;52.034;20.650;2022-11-11T12:11:58;12.40;99.90
28767;DHT22;15921;52.034;20.650;2022-11-11T12:25:32;12.70;99.90
28767;DHT22;15921;52.034;20.650;2022-11-11T12:36:31;12.70;99.90
28767;DHT22;15921;52.034;20.650;2022-11-11T12:44:57;12.50;99.90
28767;DHT22;15921;52.034;20.650;2022-11-11T12:47:40;12.40;99.90
28767;DHT22;15921;52.034;20.650;2022-11-11T12:54:11;12.20;99.90
28767;DHT22;15921;52.034;20.650;2022-11-11T12:56:29;12.20;99.90
28767;DHT22;15921;52.034;20.650;2022-11-11T12:59:20;12.30;99.90
28767;DHT22;15921;52.034;20.650;2022-11-11T13:15:47;12.20;99.90
28767;DHT22;15921;52.034;20.650;2022-11-11T13:18:23;12.10;99.90
28767;DHT22;15921;52.034;20.650;2022-11-11T13:21:08;12.10;99.90
28767;DHT22;15921;52.034;20.650;2022-11-11T13:23:35;12.10;99.90
28767;DHT22;15921;52.034;20.650;2022-11-11T13:26:05;12.20;99.90
28767;DHT22;15921;52.034;20.650;2022-11-11T13:28:39;12.20;99.90
28767;DHT22;15921;52.034;20.650;2022-11-11T13:33:49;12.20;99.90
28767;DHT22;15921;52.034;20.650;2022-11-11T13:36:17;12.20;99.90
28767;DHT22;15921;52.034;20.650;2022-11-11T13:38:59;12.20;99.90
28767;DHT22;15921;52.034;20.650;2022-11-11T13:43:58;12.10;99.90
28767;DHT22;15921;52.034;20.650;2022-11-11T13:46:43;12.10;99.90
28767;DHT22;15921;52.034;20.650;2022-11-11T13:49:34;12.10;99.90
28767;DHT22;15921;52.034;20.650;2022-11-11T13:52:21;12.10;99.90
28767;DHT22;15921;52.034;20.650;2022-11-11T13:54:53;12.10;99.90
28767;DHT22;15921;52.034;20.650;2022-11-11T13:57:23;12.10;99.90
28767;DHT22;15921;52.034;20.650;2022-11-11T13:59:58;12.00;99.90
28767;DHT22;15921;52.034;20.650;2022-11-11T14:02:30;11.90;99.90
28767;DHT22;15921;52.034;20.650;2022-11-11T14:12:51;11.80;99.90
28767;DHT22;15921;52.034;20.650;2022-11-11T14:18:03;11.80;99.90
28767;DHT22;15921;52.034;20.650;2022-11-11T14:20:40;11.80;99.90
28767;DHT22;15921;52.034;20.650;2022-11-11T14:26:14;11.70;99.90
28767;DHT22;15921;52.034;20.650;2022-11-11T14:41:54;11.60;99.90
28767;DHT22;15921;52.034;20.650;2022-11-11T14:49:53;11.60;99.90
28767;DHT22;15921;52.034;20.650;2022-11-11T14:52:31;11.60;99.90
28767;DHT22;15921;52.034;20.650;2022-11-11T14:55:01;11.50;99.90
28767;DHT22;15921;52.034;20.650;2022-11-11T14:57:37;11.50;99.90
28767;DHT22;15921;52.034;20.650;2022-11-11T15:00:13;11.50;99.90
28767;DHT22;15921;52.034;20.650;2022-11-11T15:02:59;11.40;99.90
28767;DHT22;15921;52.034;20.650;2022-11-11T15:05:48;11.40;99.90
28767;DHT22;15921;52.034;20.650;2022-11-11T15:08:22;11.40;99.90
28767;DHT22;15921;52.034;20.650;2022-11-11T15:11:02;11.40;99.90
28767;DHT22;15921;52.034;20.650;2022-11-11T15:21:39;11.40;99.90
28767;DHT22;15921;52.034;20.650;2022-11-11T15:24:16;11.40;99.90
28767;DHT22;15921;52.034;20.650;2022-11-11T15:32:45;11.30;99.90
28767;DHT22;15921;52.034;20.650;2022-11-11T15:37:59;11.30;99.90
28767;DHT22;15921;52.034;20.650;2022-11-11T15:40:30;11.30;99.90
28767;DHT22;15921;52.034;20.650;2022-11-11T15:42:58;11.30;99.90
28767;DHT22;15921;52.034;20.650;2022-11-11T15:45:36;11.30;99.90
28767;DHT22;15921;52.034;20.650;2022-11-11T15:48:02;11.30;99.90
28767;DHT22;15921;52.034;20.650;2022-11-11T15:50:34;11.20;99.90
28767;DHT22;15921;52.034;20.650;2022-11-11T15:53:02;11.30;99.90
28767;DHT22;15921;52.034;20.650;2022-11-11T15:55:31;11.30;99.90
28767;DHT22;15921;52.034;20.650;2022-11-11T16:00:36;11.30;99.90
28767;DHT22;15921;52.034;20.650;2022-11-11T16:03:03;11.20;99.90
28767;DHT22;15921;52.034;20.650;2022-11-11T16:05:30;11.20;99.90
28767;DHT22;15921;52.034;20.650;2022-11-11T16:08:05;11.20;99.90
28767;DHT22;15921;52.034;20.650;2022-11-11T16:10:35;11.20;99.90
28767;DHT22;15921;52.034;20.650;2022-11-11T16:13:07;11.20;99.90
28767;DHT22;15921;52.034;20.650;2022-11-11T16:16:06;11.20;99.90
28767;DHT22;15921;52.034;20.650;2022-11-11T16:18:47;11.10;99.90
28767;DHT22;15921;52.034;20.650;2022-11-11T16:21:18;11.10;99.90
28767;DHT22;15921;52.034;20.650;2022-11-11T16:23:45;11.10;99.90
28767;DHT22;15921;52.034;20.650;2022-11-11T16:26:12;11.20;99.90
28767;DHT22;15921;52.034;20.650;2022-11-11T16:28:40;11.20;99.90
28767;DHT22;15921;52.034;20.650;2022-11-11T16:37:06;11.20;99.90
28767;DHT22;15921;52.034;20.650;2022-11-11T16:39:33;11.10;99.90
28767;DHT22;15921;52.034;20.650;2022-11-11T16:42:02;11.10;99.90
28767;DHT22;15921;52.034;20.650;2022-11-11T16:44:38;11.10;99.90
28767;DHT22;15921;52.034;20.650;2022-11-11T16:47:06;11.00;99.90
28767;DHT22;15921;52.034;20.650;2022-11-11T16:50:07;11.00;99.90
28767;DHT22;15921;52.034;20.650;2022-11-11T16:52:52;11.00;99.90
28767;DHT22;15921;52.034;20.650;2022-11-11T16:55:43;11.00;99.90
28767;DHT22;15921;52.034;20.650;2022-11-11T16:58:10;11.00;99.90
28767;DHT22;15921;52.034;20.650;2022-11-11T17:00:38;11.00;99.90
28767;DHT22;15921;52.034;20.650;2022-11-11T17:03:11;10.90;99.90
28767;DHT22;15921;52.034;20.650;2022-11-11T17:06:04;10.90;99.90
28767;DHT22;15921;52.034;20.650;2022-11-11T17:08:40;10.90;99.90
28767;DHT22;15921;52.034;20.650;2022-11-11T17:11:41;10.90;99.90
28767;DHT22;15921;52.034;20.650;2022-11-11T17:13:56;10.90;99.90
28767;DHT22;15921;52.034;20.650;2022-11-11T17:16:22;10.90;99.90
28767;DHT22;15921;52.034;20.650;2022-11-11T17:18:48;10.90;99.90
28767;DHT22;15921;52.034;20.650;2022-11-11T17:21:13;10.90;99.90
28767;DHT22;15921;52.034;20.650;2022-11-11T17:23:39;10.90;99.90
28767;DHT22;15921;52.034;20.650;2022-11-11T17:26:05;10.90;99.90
28767;DHT22;15921;52.034;20.650;2022-11-11T17:28:35;10.90;99.90
28767;DHT22;15921;52.034;20.650;2022-11-11T17:31:05;10.80;99.90
28767;DHT22;15921;52.034;20.650;2022-11-11T17:33:31;10.80;99.90
28767;DHT22;15921;52.034;20.650;2022-11-11T17:35:57;10.80;99.90
28767;DHT22;15921;52.034;20.650;2022-11-11T17:38:23;10.80;99.90
28767;DHT22;15921;52.034;20.650;2022-11-11T17:40:49;10.80;99.90
28767;DHT22;15921;52.034;20.650;2022-11-11T17:43:15;10.80;99.90
28767;DHT22;15921;52.034;20.650;2022-11-11T17:45:41;10.80;99.90
28767;DHT22;15921;52.034;20.650;2022-11-11T17:48:08;10.80;99.90
28767;DHT22;15921;52.034;20.650;2022-11-11T17:50:35;10.80;99.90
28767;DHT22;15921;52.034;20.650;2022-11-11T17:53:02;10.80;99.90
28767;DHT22;15921;52.034;20.650;2022-11-11T17:55:29;10.90;99.90
28767;DHT22;15921;52.034;20.650;2022-11-11T17:57:57;10.90;99.90
28767;DHT22;15921;52.034;20.650;2022-11-11T18:00:23;10.90;99.90
28767;DHT22;15921;52.034;20.650;2022-11-11T18:02:49;10.90;99.90
28767;DHT22;15921;52.034;20.650;2022-11-11T18:05:15;10.90;99.90
28767;DHT22;15921;52.034;20.650;2022-11-11T18:07:40;10.90;99.90
28767;DHT22;15921;52.034;20.650;2022-11-11T18:10:07;10.90;99.90
28767;DHT22;15921;52.034;20.650;2022-11-11T18:12:34;10.90;99.90
28767;DHT22;15921;52.034;20.650;2022-11-11T18:15:00;10.90;99.90
28767;DHT22;15921;52.034;20.650;2022-11-11T18:17:26;10.90;99.90
28767;DHT22;15921;52.034;20.650;2022-11-11T18:19:51;10.90;99.90
28767;DHT22;15921;52.034;20.650;2022-11-11T18:22:17;10.90;99.90
28767;DHT22;15921;52.034;20.650;2022-11-11T18:24:43;10.90;99.90
28767;DHT22;15921;52.034;20.650;2022-11-11T18:27:08;10.90;99.90
28767;DHT22;15921;52.034;20.650;2022-11-11T18:29:34;10.90;99.90